createdAt,value
2022-12-03T00:01:59.686Z,102717.63
2022-12-03T00:04:26.962Z,102702.72
2022-12-03T00:06:54.040Z,102708.00
2022-12-03T00:09:21.247Z,102708.06
2022-12-03T00:11:48.360Z,102707.06
2022-12-03T00:14:15.508Z,102701.94
2022-12-03T00:16:42.544Z,102697.47
2022-12-03T00:19:09.592Z,102702.72
2022-12-03T00:21:36.650Z,102707.13
2022-12-03T00:24:03.800Z,102702.72
2022-12-03T00:26:30.908Z,102702.75
2022-12-03T00:28:58.162Z,102699.34
2022-12-03T00:31:26.198Z,102696.72
2022-12-03T00:33:53.789Z,102691.38
2022-12-03T00:36:21.163Z,102689.63
2022-12-03T00:38:48.387Z,102685.28
2022-12-03T00:41:15.489Z,102685.38
2022-12-03T00:43:42.569Z,102682.75
2022-12-03T00:46:09.953Z,102678.34
2022-12-03T00:48:37.070Z,102679.22
2022-12-03T00:51:04.329Z,102684.47
2022-12-03T00:53:31.452Z,102680.13
2022-12-03T00:55:58.567Z,102684.53
2022-12-03T00:58:25.755Z,102669.53
2022-12-03T01:00:52.805Z,102674.63
2022-12-03T01:03:19.913Z,102668.69
2022-12-03T01:05:47.090Z,102675.56
2022-12-03T01:08:14.331Z,102676.47
2022-12-03T01:10:41.510Z,102669.41
2022-12-03T01:13:08.568Z,102665.97
2022-12-03T01:15:35.712Z,102663.38
2022-12-03T01:18:02.880Z,102660.75
2022-12-03T01:20:29.996Z,102659.84
2022-12-03T01:22:57.109Z,102658.06
2022-12-03T01:25:24.198Z,102656.41
2022-12-03T01:27:51.263Z,102651.84
2022-12-03T01:30:18.379Z,102653.63
2022-12-03T01:32:45.511Z,102651.97
2022-12-03T01:35:12.596Z,102651.81
2022-12-03T01:37:39.777Z,102650.19
2022-12-03T01:40:09.215Z,102655.44
2022-12-03T01:42:40.527Z,102657.13
2022-12-03T01:45:15.239Z,102657.25
2022-12-03T01:47:42.365Z,102659.03
2022-12-03T01:50:22.238Z,102658.97
2022-12-03T01:52:49.532Z,102654.56
2022-12-03T01:55:22.688Z,102645.94
2022-12-03T01:57:57.389Z,102655.56
2022-12-03T02:00:29.263Z,102654.78
2022-12-03T02:03:06.840Z,102656.44
2022-12-03T02:05:34.748Z,102648.50
2022-12-03T02:08:02.336Z,102645.06
2022-12-03T02:10:36.819Z,102649.47
2022-12-03T02:13:08.583Z,102643.25
2022-12-03T02:15:38.075Z,102644.22
2022-12-03T02:18:05.631Z,102646.00
2022-12-03T02:20:48.694Z,102644.22
2022-12-03T02:24:09.413Z,102641.66
2022-12-03T02:26:36.600Z,102642.47
2022-12-03T02:29:03.811Z,102641.66
2022-12-03T02:31:31.299Z,102649.56
2022-12-03T02:33:58.455Z,102641.66
2022-12-03T02:36:25.839Z,102640.91
2022-12-03T02:38:53.152Z,102647.03
2022-12-03T02:41:40.848Z,102639.13
2022-12-03T02:44:08.940Z,102640.09
2022-12-03T02:46:36.763Z,102633.13
2022-12-03T02:49:06.114Z,102639.25
2022-12-03T02:51:35.163Z,102640.09
2022-12-03T02:54:03.518Z,102635.78
2022-12-03T02:56:32.913Z,102633.13
2022-12-03T02:59:03.825Z,102632.31
2022-12-03T03:01:31.416Z,102633.22
2022-12-03T03:03:59.579Z,102634.13
2022-12-03T03:06:27.204Z,102625.34
2022-12-03T03:08:54.435Z,102630.66
2022-12-03T03:11:21.616Z,102619.19
2022-12-03T03:13:48.804Z,102623.56
2022-12-03T03:16:15.976Z,102618.31
2022-12-03T03:18:43.080Z,102617.56
2022-12-03T03:21:10.439Z,102621.97
2022-12-03T03:23:37.538Z,102621.94
2022-12-03T03:26:14.085Z,102616.69
2022-12-03T03:28:47.804Z,102616.72
2022-12-03T03:31:18.647Z,102610.56
2022-12-03T03:33:50.023Z,102610.63
2022-12-03T03:36:17.916Z,102608.00
2022-12-03T03:38:45.035Z,102609.78
2022-12-03T03:41:13.361Z,102607.09
2022-12-03T03:43:43.233Z,102607.16
2022-12-03T03:46:11.592Z,102606.34
2022-12-03T03:48:41.253Z,102607.19
2022-12-03T03:51:09.514Z,102607.19
2022-12-03T03:53:49.925Z,102601.09
2022-12-03T03:56:19.770Z,102601.94
2022-12-03T03:58:47.050Z,102602.00
2022-12-03T04:01:15.282Z,102603.72
2022-12-03T04:03:42.621Z,102591.53
2022-12-03T04:06:10.346Z,102600.31
2022-12-03T04:08:37.392Z,102591.50
2022-12-03T04:11:23.297Z,102592.44
2022-12-03T04:13:50.400Z,102595.06
2022-12-03T04:16:17.532Z,102587.19
2022-12-03T04:18:44.719Z,102585.44
2022-12-03T04:21:38.722Z,102588.06
2022-12-03T04:24:07.967Z,102580.16
2022-12-03T04:26:54.511Z,102584.56
2022-12-03T04:29:22.229Z,102576.72
2022-12-03T04:32:08.342Z,102580.16
2022-12-03T04:34:54.655Z,102582.88
2022-12-03T04:37:21.972Z,102579.22
2022-12-03T04:39:49.059Z,102578.47
2022-12-03T04:42:16.172Z,102574.13
2022-12-03T04:44:43.333Z,102579.31
2022-12-03T04:47:14.573Z,102578.47
2022-12-03T04:49:45.812Z,102576.69
2022-12-03T04:52:15.297Z,102570.53
2022-12-03T04:54:42.867Z,102569.69
2022-12-03T04:57:11.227Z,102577.59
2022-12-03T04:59:39.140Z,102569.72
2022-12-03T05:02:07.679Z,102579.31
2022-12-03T05:04:35.170Z,102575.81
2022-12-03T05:07:02.824Z,102570.63
2022-12-03T05:09:30.090Z,102573.25
2022-12-03T05:11:57.188Z,102567.09
2022-12-03T05:14:24.416Z,102578.56
2022-12-03T05:16:51.582Z,102569.72
2022-12-03T05:19:18.743Z,102571.56
2022-12-03T05:21:45.858Z,102571.56
2022-12-03T05:24:13.733Z,102566.22
2022-12-03T05:26:40.790Z,102571.56
2022-12-03T05:29:07.983Z,102568.88
2022-12-03T05:31:35.044Z,102563.53
2022-12-03T05:34:02.178Z,102566.25
2022-12-03T05:36:29.318Z,102574.19
2022-12-03T05:38:56.371Z,102559.28
2022-12-03T05:41:41.954Z,102566.22
2022-12-03T05:44:09.052Z,102562.59
2022-12-03T05:46:36.244Z,102567.84
2022-12-03T05:49:03.417Z,102563.53
2022-12-03T05:51:30.525Z,102561.75
2022-12-03T05:53:57.572Z,102552.13
2022-12-03T05:56:24.697Z,102548.59
2022-12-03T05:58:51.763Z,102552.94
2022-12-03T06:01:18.862Z,102543.38
2022-12-03T06:03:46.050Z,102542.44
2022-12-03T06:06:13.295Z,102542.38
2022-12-03T06:08:40.414Z,102543.31
2022-12-03T06:11:07.479Z,102540.59
2022-12-03T06:13:34.571Z,102541.50
2022-12-03T06:16:01.765Z,102535.38
2022-12-03T06:18:28.958Z,102531.88
2022-12-03T06:20:56.076Z,102537.03
2022-12-03T06:23:23.123Z,102522.22
2022-12-03T06:25:51.166Z,102526.56
2022-12-03T06:28:18.231Z,102523.94
2022-12-03T06:30:45.440Z,102526.53
2022-12-03T06:33:12.583Z,102529.16
2022-12-03T06:35:39.647Z,102526.56
2022-12-03T06:38:06.718Z,102535.28
2022-12-03T06:40:33.803Z,102531.81
2022-12-03T06:43:00.926Z,102533.47
2022-12-03T06:45:28.022Z,102530.84
2022-12-03T06:47:55.140Z,102535.25
2022-12-03T06:50:22.287Z,102530.00
2022-12-03T06:53:14.368Z,102527.31
2022-12-03T06:55:41.413Z,102530.03
2022-12-03T06:58:08.504Z,102532.53
2022-12-03T07:00:35.627Z,102525.50
2022-12-03T07:03:03.020Z,102527.31
2022-12-03T07:05:30.206Z,102523.75
2022-12-03T07:07:57.322Z,102527.22
2022-12-03T07:10:24.484Z,102530.69
2022-12-03T07:12:51.593Z,102534.28
2022-12-03T07:15:18.678Z,102538.56
2022-12-03T07:17:45.745Z,102536.75
2022-12-03T07:20:15.259Z,102542.00
2022-12-03T07:22:42.369Z,102539.31
2022-12-03T07:25:10.043Z,102549.00
2022-12-03T07:27:37.108Z,102541.94
2022-12-03T07:30:06.312Z,102549.84
2022-12-03T07:32:33.393Z,102547.13
2022-12-03T07:35:01.071Z,102549.84
2022-12-03T07:37:28.131Z,102548.91
2022-12-03T07:39:55.214Z,102549.75
2022-12-03T07:42:22.326Z,102548.84
2022-12-03T07:44:49.607Z,102545.38
2022-12-03T07:47:16.957Z,102548.78
2022-12-03T07:49:44.342Z,102542.69
2022-12-03T07:52:11.401Z,102550.63
2022-12-03T07:54:38.570Z,102549.75
2022-12-03T07:57:05.714Z,102557.50
2022-12-03T07:59:32.848Z,102545.28
2022-12-03T08:02:00.128Z,102544.50
2022-12-03T08:04:27.272Z,102543.59
2022-12-03T08:06:54.637Z,102545.38
2022-12-03T08:09:22.408Z,102541.81
2022-12-03T08:11:50.361Z,102538.34
2022-12-03T08:14:20.851Z,102543.53
2022-12-03T08:16:48.802Z,102546.22
2022-12-03T08:19:17.800Z,102542.59
2022-12-03T08:21:45.403Z,102538.25
2022-12-03T08:24:20.787Z,102542.66
2022-12-03T08:26:49.542Z,102538.09
2022-12-03T08:29:19.630Z,102533.69
2022-12-03T08:31:52.071Z,102537.16
2022-12-03T08:34:29.545Z,102542.31
2022-12-03T08:37:02.101Z,102530.97
2022-12-03T08:39:35.739Z,102532.81
2022-12-03T08:42:39.185Z,102529.28
2022-12-03T08:45:39.404Z,102534.44
2022-12-03T08:48:29.699Z,102536.22
2022-12-03T08:51:17.418Z,102535.22
2022-12-03T08:53:48.556Z,102532.59
2022-12-03T08:56:27.038Z,102531.72
2022-12-03T08:59:24.888Z,102524.88
2022-12-03T09:01:53.462Z,102526.59
2022-12-03T09:04:44.827Z,102525.72
2022-12-03T09:07:11.930Z,102521.25
2022-12-03T09:09:39.149Z,102526.56
2022-12-03T09:12:06.514Z,102522.25
2022-12-03T09:14:33.659Z,102516.94
2022-12-03T09:17:00.899Z,102518.59
2022-12-03T09:19:30.997Z,102515.16
2022-12-03T09:21:58.229Z,102512.41
2022-12-03T09:24:25.497Z,102509.78
2022-12-03T09:26:52.810Z,102514.19
2022-12-03T09:29:20.066Z,102514.22
2022-12-03T09:31:47.365Z,102504.63
2022-12-03T09:34:14.591Z,102507.25
2022-12-03T09:36:41.792Z,102516.06
2022-12-03T09:39:08.874Z,102510.75
2022-12-03T09:41:36.317Z,102508.13
2022-12-03T09:44:04.914Z,102514.28
2022-12-03T09:46:35.145Z,102521.22
2022-12-03T09:49:03.784Z,102508.97
2022-12-03T09:51:34.889Z,102511.50
2022-12-03T09:54:05.786Z,102517.63
2022-12-03T09:56:38.058Z,102519.03
2022-12-03T09:59:16.212Z,102515.72
2022-12-03T10:01:43.562Z,102513.81
2022-12-03T10:04:11.294Z,102517.34
2022-12-03T10:06:45.259Z,102519.06
2022-12-03T10:09:17.609Z,102515.56
2022-12-03T10:11:45.019Z,102521.75
2022-12-03T10:14:15.010Z,102519.06
2022-12-03T10:16:42.449Z,102523.47
2022-12-03T10:19:25.361Z,102520.81
2022-12-03T10:21:52.717Z,102519.97
2022-12-03T10:24:29.771Z,102518.19
2022-12-03T10:27:21.977Z,102517.34
2022-12-03T10:30:01.350Z,102520.81
2022-12-03T10:32:42.882Z,102513.78
2022-12-03T10:35:16.272Z,102519.84
2022-12-03T10:38:07.170Z,102520.56
2022-12-03T10:40:38.392Z,102512.72
2022-12-03T10:43:24.502Z,102503.91
2022-12-03T10:46:14.182Z,102493.31
2022-12-03T10:48:41.344Z,102493.38
2022-12-03T10:51:21.164Z,102488.13
2022-12-03T10:53:50.130Z,102490.94
2022-12-03T10:56:27.404Z,102480.34
2022-12-03T10:58:54.942Z,102473.28
2022-12-03T11:01:25.371Z,102479.31
2022-12-03T11:04:03.138Z,102474.06
2022-12-03T11:06:32.979Z,102478.38
2022-12-03T11:09:06.906Z,102476.72
2022-12-03T11:11:35.811Z,102476.47
2022-12-03T11:14:04.857Z,102474.84
2022-12-03T11:16:41.058Z,102472.06
2022-12-03T11:19:17.766Z,102472.97
2022-12-03T11:22:06.472Z,102467.66
2022-12-03T11:24:36.380Z,102460.59
2022-12-03T11:27:03.431Z,102458.97
2022-12-03T11:29:54.365Z,102456.34
2022-12-03T11:32:42.628Z,102454.59
2022-12-03T11:35:24.957Z,102446.84
2022-12-03T11:37:52.227Z,102444.91
2022-12-03T11:40:19.265Z,102446.84
2022-12-03T11:42:48.946Z,102438.91
2022-12-03T11:45:32.987Z,102438.03
2022-12-03T11:48:01.668Z,102431.03
2022-12-03T11:50:42.880Z,102431.88
2022-12-03T11:53:25.974Z,102435.34
2022-12-03T11:56:10.920Z,102429.25
2022-12-03T11:58:43.057Z,102423.13
2022-12-03T12:01:10.321Z,102426.50
2022-12-03T12:03:49.820Z,102422.94
2022-12-03T12:06:21.043Z,102424.72
2022-12-03T12:08:51.337Z,102413.38
2022-12-03T12:11:31.911Z,102410.69
2022-12-03T12:14:07.643Z,102415.91
2022-12-03T12:16:41.107Z,102413.38
2022-12-03T12:19:38.659Z,102416.16
2022-12-03T12:22:26.646Z,102406.59
2022-12-03T12:25:25.982Z,102395.22
2022-12-03T12:27:55.025Z,102389.13
2022-12-03T12:30:23.355Z,102390.81
2022-12-03T12:33:10.042Z,102386.28
2022-12-03T12:35:37.272Z,102383.75
2022-12-03T12:38:07.260Z,102386.28
2022-12-03T12:40:41.154Z,102376.75
2022-12-03T12:43:14.412Z,102380.81
2022-12-03T12:45:44.274Z,102372.19
2022-12-03T12:48:24.456Z,102375.66
2022-12-03T12:51:05.741Z,102374.72
2022-12-03T12:53:35.883Z,102380.06
2022-12-03T12:56:23.667Z,102366.88
2022-12-03T12:58:51.530Z,102372.84
2022-12-03T13:01:27.524Z,102369.44
2022-12-03T13:03:54.863Z,102368.44
2022-12-03T13:06:27.849Z,102362.34
2022-12-03T13:08:55.534Z,102366.00
2022-12-03T13:11:28.369Z,102359.81
2022-12-03T13:14:21.426Z,102368.63
2022-12-03T13:16:51.657Z,102363.41
2022-12-03T13:19:24.933Z,102360.72
2022-12-03T13:22:16.859Z,102361.50
2022-12-03T13:24:48.015Z,102361.50
2022-12-03T13:27:17.825Z,102359.03
2022-12-03T13:30:00.980Z,102357.31
2022-12-03T13:32:33.680Z,102351.06
2022-12-03T13:35:17.415Z,102358.94
2022-12-03T13:37:45.330Z,102345.88
2022-12-03T13:40:27.760Z,102354.53
2022-12-03T13:42:55.104Z,102339.53
2022-12-03T13:45:35.605Z,102344.69
2022-12-03T13:48:24.303Z,102342.97
2022-12-03T13:50:52.807Z,102337.78
2022-12-03T13:53:26.952Z,102338.50
2022-12-03T13:56:25.674Z,102332.47
2022-12-03T13:58:52.833Z,102332.41
2022-12-03T14:01:19.954Z,102335.00
2022-12-03T14:03:47.163Z,102342.91
2022-12-03T14:06:14.434Z,102342.88
2022-12-03T14:08:41.483Z,102336.59
2022-12-03T14:11:08.687Z,102337.41
2022-12-03T14:13:35.754Z,102333.81
2022-12-03T14:16:02.913Z,102335.50
2022-12-03T14:18:30.067Z,102337.22
2022-12-03T14:20:57.172Z,102329.38
2022-12-03T14:23:24.306Z,102325.75
2022-12-03T14:25:51.482Z,102323.97
2022-12-03T14:28:18.622Z,102317.03
2022-12-03T14:30:45.667Z,102317.00
2022-12-03T14:33:12.791Z,102314.44
2022-12-03T14:35:39.899Z,102317.00
2022-12-03T14:38:07.000Z,102317.75
2022-12-03T14:40:34.556Z,102322.28
2022-12-03T14:43:01.650Z,102311.75
2022-12-03T14:45:29.823Z,102314.28
2022-12-03T14:47:56.989Z,102318.78
2022-12-03T14:50:25.905Z,102310.03
2022-12-03T14:52:53.083Z,102315.13
2022-12-03T14:55:20.199Z,102319.47
2022-12-03T14:57:47.300Z,102318.69
2022-12-03T15:00:15.240Z,102324.81
2022-12-03T15:02:42.401Z,102322.03
2022-12-03T15:05:09.755Z,102314.38
2022-12-03T15:07:39.255Z,102311.59
2022-12-03T15:10:08.050Z,102315.16
2022-12-03T15:12:35.218Z,102305.56
2022-12-03T15:15:02.313Z,102311.59
2022-12-03T15:17:31.965Z,102319.56
2022-12-03T15:19:59.516Z,102315.25
2022-12-03T15:22:26.634Z,102308.94
2022-12-03T15:24:53.704Z,102315.91
2022-12-03T15:27:20.753Z,102315.91
2022-12-03T15:29:47.906Z,102309.72
2022-12-03T15:32:15.075Z,102310.47
2022-12-03T15:34:42.197Z,102316.69
2022-12-03T15:37:09.321Z,102311.41
2022-12-03T15:39:37.543Z,102314.06
2022-12-03T15:42:04.710Z,102319.28
2022-12-03T15:44:31.802Z,102312.28
2022-12-03T15:46:58.915Z,102311.34
2022-12-03T15:49:26.039Z,102314.72
2022-12-03T15:51:53.946Z,102321.69
2022-12-03T15:54:21.041Z,102320.81
2022-12-03T15:56:51.486Z,102325.25
2022-12-03T15:59:21.267Z,102329.59
2022-12-03T16:01:48.382Z,102323.47
2022-12-03T16:04:15.567Z,102324.25
2022-12-03T16:06:42.633Z,102326.81
2022-12-03T16:09:10.374Z,102326.81
2022-12-03T16:11:37.478Z,102320.69
2022-12-03T16:14:04.565Z,102320.66
2022-12-03T16:16:31.766Z,102326.72
2022-12-03T16:18:58.868Z,102318.97
2022-12-03T16:21:27.178Z,102321.59
2022-12-03T16:23:55.332Z,102322.59
2022-12-03T16:26:22.818Z,102325.16
2022-12-03T16:28:50.056Z,102310.16
2022-12-03T16:31:18.959Z,102311.09
2022-12-03T16:33:46.262Z,102317.97
2022-12-03T16:36:13.601Z,102319.81
2022-12-03T16:38:40.742Z,102320.69
2022-12-03T16:41:07.874Z,102322.44
2022-12-03T16:43:38.505Z,102310.13
2022-12-03T16:46:20.878Z,102302.16
2022-12-03T16:48:48.696Z,102302.22
2022-12-03T16:51:16.583Z,102300.63
2022-12-03T16:53:43.726Z,102295.38
2022-12-03T16:56:10.828Z,102288.28
2022-12-03T16:58:37.942Z,102296.84
2022-12-03T17:01:05.499Z,102290.78
2022-12-03T17:03:34.269Z,102289.00
2022-12-03T17:06:02.214Z,102289.09
2022-12-03T17:08:29.656Z,102293.47
2022-12-03T17:10:57.083Z,102289.03
2022-12-03T17:13:24.536Z,102288.06
2022-12-03T17:15:51.726Z,102293.34
2022-12-03T17:18:18.883Z,102291.66
2022-12-03T17:20:45.992Z,102303.88
2022-12-03T17:23:13.282Z,102297.75
2022-12-03T17:25:40.405Z,102302.06
2022-12-03T17:28:07.493Z,102301.13
2022-12-03T17:30:34.596Z,102301.16
2022-12-03T17:33:01.723Z,102301.16
2022-12-03T17:35:28.830Z,102299.47
2022-12-03T17:37:56.022Z,102306.50
2022-12-03T17:40:23.328Z,102298.53
2022-12-03T17:42:50.442Z,102294.28
2022-12-03T17:45:17.534Z,102294.25
2022-12-03T17:47:44.681Z,102294.13
2022-12-03T17:50:12.345Z,102300.28
2022-12-03T17:52:39.444Z,102294.19
2022-12-03T17:55:13.161Z,102290.69
2022-12-03T17:57:41.555Z,102296.81
2022-12-03T18:00:10.297Z,102290.63
2022-12-03T18:02:42.303Z,102294.84
2022-12-03T18:05:09.790Z,102290.59
2022-12-03T18:07:36.920Z,102286.97
2022-12-03T18:10:05.173Z,102297.50
2022-12-03T18:12:32.430Z,102292.31
2022-12-03T18:14:59.564Z,102286.97
2022-12-03T18:17:26.672Z,102287.91
2022-12-03T18:19:54.249Z,102281.78
2022-12-03T18:22:21.687Z,102273.03
2022-12-03T18:24:51.852Z,102273.88
2022-12-03T18:27:21.145Z,102278.28
2022-12-03T18:29:48.803Z,102274.75
2022-12-03T18:32:28.295Z,102277.31
2022-12-03T18:34:57.325Z,102272.19
2022-12-03T18:37:28.509Z,102270.41
2022-12-03T18:39:56.759Z,102267.72
2022-12-03T18:42:24.467Z,102263.38
2022-12-03T18:44:54.651Z,102254.66
2022-12-03T18:47:26.253Z,102260.72
2022-12-03T18:49:53.987Z,102265.13
2022-12-03T18:52:23.693Z,102269.53
2022-12-03T18:54:50.957Z,102265.06
2022-12-03T18:57:18.130Z,102265.13
2022-12-03T18:59:45.318Z,102263.34
2022-12-03T19:02:45.953Z,102271.16
2022-12-03T19:05:07.014Z,102257.16
2022-12-03T19:07:34.136Z,102263.28
2022-12-03T19:10:01.257Z,102263.16
2022-12-03T19:12:28.379Z,102260.41
2022-12-03T19:14:55.475Z,102264.81
2022-12-03T19:17:22.551Z,102262.31
2022-12-03T19:19:49.810Z,102264.00
2022-12-03T19:22:16.871Z,102255.25
2022-12-03T19:24:44.017Z,102266.59
2022-12-03T19:27:11.163Z,102260.47
2022-12-03T19:29:38.298Z,102262.09
2022-12-03T19:32:05.630Z,102256.84
2022-12-03T19:34:32.858Z,102255.13
2022-12-03T19:36:59.901Z,102266.44
2022-12-03T19:39:27.019Z,102255.75
2022-12-03T19:41:54.083Z,102257.53
2022-12-03T19:44:21.247Z,102255.81
2022-12-03T19:46:50.760Z,102251.34
2022-12-03T19:49:20.732Z,102252.34
2022-12-03T19:51:48.341Z,102247.97
2022-12-03T19:54:15.801Z,102247.22
2022-12-03T19:56:43.925Z,102243.63
2022-12-03T19:59:12.845Z,102247.06
2022-12-03T20:01:42.780Z,102245.28
2022-12-03T20:04:12.595Z,102241.81
2022-12-03T20:06:40.970Z,102242.66
2022-12-03T20:09:17.141Z,102240.88
2022-12-03T20:11:45.807Z,102246.13
2022-12-03T20:14:16.076Z,102252.31
2022-12-03T20:16:44.861Z,102252.28
2022-12-03T20:19:15.949Z,102252.25
2022-12-03T20:21:44.258Z,102251.31
2022-12-03T20:24:16.570Z,102252.16
2022-12-03T20:26:44.231Z,102254.91
2022-12-03T20:29:11.831Z,102253.03
2022-12-03T20:31:38.994Z,102248.69
2022-12-03T20:34:07.097Z,102244.25
2022-12-03T20:36:34.352Z,102246.97
2022-12-03T20:39:06.855Z,102239.06
2022-12-03T20:41:37.578Z,102234.75
2022-12-03T20:44:07.379Z,102229.47
2022-12-03T20:46:35.221Z,102229.47
2022-12-03T20:49:02.455Z,102229.41
2022-12-03T20:51:33.652Z,102229.38
2022-12-03T20:54:01.874Z,102223.28
2022-12-03T20:56:36.303Z,102225.97
2022-12-03T20:59:06.808Z,102219.00
2022-12-03T21:01:35.766Z,102213.72
2022-12-03T21:04:04.566Z,102205.75
2022-12-03T21:06:34.911Z,102210.22
2022-12-03T21:09:05.012Z,102210.94
2022-12-03T21:11:35.530Z,102215.34
2022-12-03T21:14:04.031Z,102210.94
2022-12-03T21:17:06.107Z,102210.09
2022-12-03T21:19:23.142Z,102208.31
2022-12-03T21:21:50.402Z,102217.91
2022-12-03T21:24:17.545Z,102216.06
2022-12-03T21:26:44.622Z,102217.84
2022-12-03T21:29:14.690Z,102216.91
2022-12-03T21:31:41.806Z,102218.75
2022-12-03T21:34:08.970Z,102213.44
2022-12-03T21:36:36.125Z,102209.91
2022-12-03T21:39:03.829Z,102205.59
2022-12-03T21:41:31.822Z,102213.56
2022-12-03T21:43:59.366Z,102214.38
2022-12-03T21:47:09.746Z,102202.94
2022-12-03T21:49:14.401Z,102203.91
2022-12-03T21:51:41.455Z,102203.97
2022-12-03T21:54:08.577Z,102216.06
2022-12-03T21:56:35.779Z,102209.94
2022-12-03T21:59:02.885Z,102213.41
2022-12-03T22:01:30.325Z,102215.19
2022-12-03T22:03:58.221Z,102209.06
2022-12-03T22:06:25.322Z,102206.28
2022-12-03T22:08:52.624Z,102199.38
2022-12-03T22:11:24.439Z,102202.84
2022-12-03T22:13:51.740Z,102200.22
2022-12-03T22:16:21.595Z,102194.94
2022-12-03T22:18:49.289Z,102199.25
2022-12-03T22:21:19.942Z,102199.25
2022-12-03T22:23:47.107Z,102194.94
2022-12-03T22:26:19.187Z,102206.28
2022-12-03T22:28:48.864Z,102195.72
2022-12-03T22:31:17.837Z,102195.81
2022-12-03T22:33:48.143Z,102204.50
2022-12-03T22:36:20.465Z,102203.56
2022-12-03T22:38:49.646Z,102201.03
2022-12-03T22:41:17.661Z,102202.78
2022-12-03T22:43:46.180Z,102201.94
2022-12-03T22:46:14.505Z,102206.34
2022-12-03T22:48:43.813Z,102201.06
2022-12-03T22:51:20.099Z,102192.38
2022-12-03T22:53:47.836Z,102191.47
2022-12-03T22:56:15.915Z,102190.59
2022-12-03T22:58:43.040Z,102189.75
2022-12-03T23:01:10.151Z,102183.66
2022-12-03T23:03:37.573Z,102187.22
2022-12-03T23:06:12.545Z,102187.28
2022-12-03T23:08:39.854Z,102185.50
2022-12-03T23:11:07.366Z,102181.94
2022-12-03T23:13:35.247Z,102178.38
2022-12-03T23:16:03.311Z,102173.16
2022-12-03T23:18:30.518Z,102174.94
2022-12-03T23:20:57.872Z,102169.63
2022-12-03T23:23:27.454Z,102171.47
2022-12-03T23:26:09.075Z,102169.69
2022-12-03T23:28:40.688Z,102173.16
2022-12-03T23:31:18.253Z,102181.00
2022-12-03T23:33:45.802Z,102180.94
2022-12-03T23:36:13.230Z,102181.84
2022-12-03T23:38:40.911Z,102174.09
2022-12-03T23:41:12.252Z,102179.38
2022-12-03T23:43:40.929Z,102175.91
2022-12-03T23:46:12.074Z,102178.53
2022-12-03T23:48:39.641Z,102182.88
2022-12-03T23:51:10.041Z,102184.66
2022-12-03T23:53:38.562Z,102185.44
2022-12-03T23:56:12.899Z,102184.75
2022-12-03T23:58:40.076Z,102179.47
